createdAt,value
2019-02-17T00:00:57.940Z,17.60
2019-02-17T00:02:05.496Z,16.07
2019-02-17T00:03:10.443Z,17.95
2019-02-17T00:04:15.446Z,16.97
2019-02-17T00:05:20.269Z,15.88
2019-02-17T00:06:25.172Z,17.62
2019-02-17T00:07:29.961Z,17.20
2019-02-17T00:08:35.742Z,16.97
2019-02-17T00:09:40.684Z,16.20
2019-02-17T00:10:45.656Z,16.50
2019-02-17T00:11:50.780Z,16.95
2019-02-17T00:12:55.596Z,17.82
2019-02-17T00:14:00.400Z,18.37
2019-02-17T00:15:05.973Z,17.87
2019-02-17T00:16:10.920Z,17.12
2019-02-17T00:17:15.839Z,18.07
2019-02-17T00:18:20.942Z,17.80
2019-02-17T00:19:25.863Z,18.57
2019-02-17T00:20:30.947Z,17.60
2019-02-17T00:21:35.745Z,18.57
2019-02-17T00:22:40.740Z,16.87
2019-02-17T00:23:45.717Z,18.32
2019-02-17T00:24:50.600Z,17.87
2019-02-17T00:25:55.624Z,17.87
2019-02-17T00:27:00.576Z,19.02
2019-02-17T00:28:05.612Z,18.27
2019-02-17T00:29:10.594Z,19.15
2019-02-17T00:30:15.830Z,17.87
2019-02-17T00:31:20.742Z,19.52
2019-02-17T00:32:25.638Z,18.30
2019-02-17T00:33:30.645Z,18.25
2019-02-17T00:34:35.453Z,17.95
2019-02-17T00:35:40.264Z,18.42
2019-02-17T00:36:45.176Z,18.50
2019-02-17T00:37:50.188Z,18.65
2019-02-17T00:38:55.445Z,19.17
2019-02-17T00:40:00.609Z,18.82
2019-02-17T00:41:05.552Z,17.62
2019-02-17T00:42:10.460Z,18.57
2019-02-17T00:43:15.608Z,18.15
2019-02-17T00:44:20.507Z,17.50
2019-02-17T00:45:25.246Z,17.48
2019-02-17T00:46:30.177Z,17.80
2019-02-17T00:47:35.163Z,18.40
2019-02-17T00:48:39.976Z,18.25
2019-02-17T00:49:44.887Z,18.65
2019-02-17T00:50:49.694Z,18.60
2019-02-17T00:51:54.490Z,19.55
2019-02-17T00:52:59.552Z,18.73
2019-02-17T00:54:04.396Z,18.60
2019-02-17T00:55:09.365Z,18.20
2019-02-17T00:56:14.309Z,18.35
2019-02-17T00:57:19.200Z,18.50
2019-02-17T00:58:24.494Z,18.60
2019-02-17T00:59:29.528Z,19.00
2019-02-17T01:00:34.493Z,19.17
2019-02-17T01:01:39.396Z,18.50
2019-02-17T01:02:44.316Z,19.67
2019-02-17T01:03:49.328Z,18.82
2019-02-17T01:04:54.435Z,19.75
2019-02-17T01:05:59.195Z,18.95
2019-02-17T01:07:04.115Z,20.45
2019-02-17T01:08:08.937Z,18.62
2019-02-17T01:09:13.861Z,18.70
2019-02-17T01:10:18.893Z,19.35
2019-02-17T01:11:23.813Z,19.80
2019-02-17T01:12:28.938Z,20.88
2019-02-17T01:13:33.869Z,21.20
2019-02-17T01:14:38.896Z,19.75
2019-02-17T01:15:43.832Z,19.75
2019-02-17T01:16:48.931Z,19.95
2019-02-17T01:17:53.885Z,20.27
2019-02-17T01:18:58.660Z,20.48
2019-02-17T01:20:03.814Z,21.80
2019-02-17T01:21:08.717Z,21.52
2019-02-17T01:22:13.641Z,21.57
2019-02-17T01:23:18.705Z,21.17
2019-02-17T01:24:23.717Z,20.27
2019-02-17T01:25:28.520Z,20.82
2019-02-17T01:26:33.279Z,20.40
2019-02-17T01:27:38.165Z,21.50
2019-02-17T01:28:43.322Z,20.95
2019-02-17T01:29:48.277Z,20.90
2019-02-17T01:30:53.163Z,21.62
2019-02-17T01:31:58.110Z,21.85
2019-02-17T01:33:03.188Z,22.05
2019-02-17T01:34:11.826Z,21.37
2019-02-17T01:35:16.820Z,20.80
2019-02-17T01:36:21.819Z,20.62
2019-02-17T01:37:26.725Z,21.77
2019-02-17T01:38:31.548Z,21.23
2019-02-17T01:39:36.535Z,21.60
2019-02-17T01:40:41.342Z,22.32
2019-02-17T01:41:46.332Z,22.37
2019-02-17T01:42:51.291Z,22.40
2019-02-17T01:43:56.129Z,22.55
2019-02-17T01:45:01.082Z,23.60
2019-02-17T01:46:05.948Z,22.90
2019-02-17T01:47:10.745Z,22.60
2019-02-17T01:48:15.651Z,23.65
2019-02-17T01:49:20.542Z,23.35
2019-02-17T01:50:25.556Z,22.20
2019-02-17T01:51:30.320Z,23.12
2019-02-17T01:52:36.258Z,24.18
2019-02-17T01:53:41.168Z,21.97
2019-02-17T01:54:46.073Z,23.98
2019-02-17T01:55:50.785Z,23.57
2019-02-17T01:56:55.716Z,23.27
2019-02-17T01:58:00.476Z,23.35
2019-02-17T01:59:05.553Z,23.73
2019-02-17T02:00:12.107Z,24.40
2019-02-17T02:01:17.246Z,23.65
2019-02-17T02:02:22.257Z,25.15
2019-02-17T02:03:27.196Z,22.93
2019-02-17T02:04:32.145Z,24.32
2019-02-17T02:05:37.142Z,23.02
2019-02-17T02:06:42.152Z,23.10
2019-02-17T02:07:47.086Z,24.00
2019-02-17T02:08:54.233Z,23.87
2019-02-17T02:09:59.189Z,23.60
2019-02-17T02:11:03.931Z,22.80
2019-02-17T02:12:08.651Z,23.50
2019-02-17T02:13:13.764Z,23.45
2019-02-17T02:14:18.702Z,23.45
2019-02-17T02:15:23.492Z,23.27
2019-02-17T02:16:28.412Z,23.40
2019-02-17T02:17:33.460Z,23.15
2019-02-17T02:18:38.247Z,23.83
2019-02-17T02:19:43.104Z,24.50
2019-02-17T02:20:47.976Z,23.57
2019-02-17T02:21:52.908Z,24.27
2019-02-17T02:22:57.857Z,23.52
2019-02-17T02:24:02.635Z,22.85
2019-02-17T02:25:07.960Z,23.38
2019-02-17T02:26:12.937Z,23.50
2019-02-17T02:27:17.808Z,24.07
2019-02-17T02:28:22.759Z,23.95
2019-02-17T02:29:27.520Z,23.10
2019-02-17T02:30:32.598Z,23.55
2019-02-17T02:31:37.560Z,23.07
2019-02-17T02:32:42.653Z,23.27
2019-02-17T02:33:47.449Z,24.05
2019-02-17T02:34:52.488Z,23.77
2019-02-17T02:35:57.420Z,24.02
2019-02-17T02:37:02.249Z,23.15
2019-02-17T02:38:07.024Z,23.50
2019-02-17T02:39:11.916Z,22.95
2019-02-17T02:40:16.804Z,23.98
2019-02-17T02:41:21.776Z,21.73
2019-02-17T02:42:26.833Z,23.38
2019-02-17T02:43:31.644Z,22.77
2019-02-17T02:44:36.432Z,22.98
2019-02-17T02:45:41.434Z,24.15
2019-02-17T02:46:46.417Z,23.55
2019-02-17T02:47:51.144Z,23.80
2019-02-17T02:48:55.951Z,23.52
2019-02-17T02:50:00.960Z,23.18
2019-02-17T02:51:06.118Z,23.50
2019-02-17T02:52:11.234Z,22.98
2019-02-17T02:53:16.007Z,22.75
2019-02-17T02:54:20.770Z,22.52
2019-02-17T02:55:25.685Z,23.22
2019-02-17T02:56:30.441Z,23.02
2019-02-17T02:57:35.320Z,23.25
2019-02-17T02:58:40.324Z,22.48
2019-02-17T02:59:52.361Z,23.62
2019-02-17T03:00:51.774Z,22.73
2019-02-17T03:01:56.544Z,23.25
2019-02-17T03:03:01.433Z,23.22
2019-02-17T03:04:06.354Z,22.52
2019-02-17T03:05:11.596Z,21.55
2019-02-17T03:06:24.809Z,22.60
2019-02-17T03:07:29.570Z,22.80
2019-02-17T03:08:34.496Z,22.45
2019-02-17T03:09:39.401Z,21.25
2019-02-17T03:10:44.163Z,22.60
2019-02-17T03:11:49.060Z,23.47
2019-02-17T03:12:53.944Z,22.85
2019-02-17T03:13:58.780Z,22.30
2019-02-17T03:15:04.991Z,24.72
2019-02-17T03:16:09.865Z,24.40
2019-02-17T03:17:14.644Z,23.77
2019-02-17T03:18:19.393Z,23.38
2019-02-17T03:19:24.324Z,23.02
2019-02-17T03:20:29.342Z,23.73
2019-02-17T03:21:34.192Z,24.20
2019-02-17T03:22:38.961Z,25.25
2019-02-17T03:23:43.841Z,22.48
2019-02-17T03:24:48.752Z,24.25
2019-02-17T03:25:53.960Z,23.12
2019-02-17T03:26:58.696Z,23.52
2019-02-17T03:28:03.410Z,23.80
2019-02-17T03:29:08.320Z,24.92
2019-02-17T03:30:13.325Z,23.90
2019-02-17T03:31:18.177Z,23.57
2019-02-17T03:32:23.194Z,24.25
2019-02-17T03:33:28.122Z,24.00
2019-02-17T03:34:33.032Z,23.83
2019-02-17T03:35:37.901Z,21.68
2019-02-17T03:36:42.688Z,24.82
2019-02-17T03:37:47.683Z,24.52
2019-02-17T03:38:52.475Z,24.77
2019-02-17T03:39:57.488Z,24.27
2019-02-17T03:41:02.764Z,24.18
2019-02-17T03:42:07.573Z,24.12
2019-02-17T03:43:12.472Z,24.37
2019-02-17T03:44:17.562Z,22.75
2019-02-17T03:45:22.548Z,23.80
2019-02-17T03:46:27.308Z,24.20
2019-02-17T03:47:32.165Z,24.35
2019-02-17T03:48:37.099Z,24.40
2019-02-17T03:49:42.068Z,23.80
2019-02-17T03:50:46.816Z,24.25
2019-02-17T03:51:51.740Z,24.27
2019-02-17T03:52:56.627Z,24.82
2019-02-17T03:54:01.632Z,23.32
2019-02-17T03:55:06.492Z,24.52
2019-02-17T03:56:11.388Z,22.87
2019-02-17T03:57:16.408Z,24.20
2019-02-17T03:58:21.352Z,23.45
2019-02-17T03:59:26.252Z,24.18
2019-02-17T04:00:30.973Z,24.75
2019-02-17T04:01:35.865Z,24.10
2019-02-17T04:02:40.752Z,23.92
2019-02-17T04:03:45.597Z,24.75
2019-02-17T04:04:50.652Z,23.70
2019-02-17T04:05:55.718Z,23.57
2019-02-17T04:07:00.600Z,24.87
2019-02-17T04:08:05.353Z,25.08
2019-02-17T04:09:10.330Z,23.20
2019-02-17T04:10:15.243Z,24.72
2019-02-17T04:11:20.203Z,25.52
2019-02-17T04:12:25.099Z,25.35
2019-02-17T04:13:30.176Z,24.75
2019-02-17T04:14:35.113Z,25.60
2019-02-17T04:15:40.165Z,23.80
2019-02-17T04:16:45.200Z,24.47
2019-02-17T04:17:50.112Z,24.20
2019-02-17T04:18:55.414Z,24.20
2019-02-17T04:20:00.350Z,24.70
2019-02-17T04:21:05.045Z,25.60
2019-02-17T04:22:10.020Z,24.60
2019-02-17T04:23:14.897Z,24.95
2019-02-17T04:24:19.820Z,24.05
2019-02-17T04:25:24.605Z,25.48
2019-02-17T04:26:29.564Z,24.92
2019-02-17T04:27:34.502Z,25.45
2019-02-17T04:28:39.219Z,25.32
2019-02-17T04:29:45.199Z,25.70
2019-02-17T04:30:50.065Z,24.98
2019-02-17T04:31:54.939Z,25.45
2019-02-17T04:32:59.716Z,24.20
2019-02-17T04:34:04.628Z,26.20
2019-02-17T04:35:09.702Z,24.67
2019-02-17T04:36:14.449Z,24.43
2019-02-17T04:37:19.367Z,25.17
2019-02-17T04:38:24.249Z,24.92
2019-02-17T04:39:29.118Z,26.80
2019-02-17T04:40:33.884Z,25.50
2019-02-17T04:41:38.912Z,25.37
2019-02-17T04:42:43.809Z,25.88
2019-02-17T04:43:48.680Z,24.77
2019-02-17T04:44:53.509Z,24.72
2019-02-17T04:45:58.547Z,24.90
2019-02-17T04:47:03.531Z,24.60
2019-02-17T04:48:08.509Z,24.90
2019-02-17T04:49:13.277Z,24.23
2019-02-17T04:50:18.328Z,25.20
2019-02-17T04:51:23.036Z,25.40
2019-02-17T04:52:27.900Z,24.67
2019-02-17T04:53:32.737Z,25.85
2019-02-17T04:54:37.592Z,26.20
2019-02-17T04:55:42.685Z,25.37
2019-02-17T04:56:47.573Z,26.48
2019-02-17T04:57:52.318Z,25.02
2019-02-17T04:58:57.204Z,25.00
2019-02-17T05:00:02.045Z,24.32
2019-02-17T05:01:06.820Z,25.12
2019-02-17T05:02:11.597Z,25.23
2019-02-17T05:03:16.533Z,24.65
2019-02-17T05:04:21.293Z,24.67
2019-02-17T05:05:26.074Z,25.27
2019-02-17T05:06:30.973Z,24.23
2019-02-17T05:07:35.889Z,24.55
2019-02-17T05:08:40.814Z,24.05
2019-02-17T05:09:45.744Z,24.20
2019-02-17T05:10:50.819Z,24.92
2019-02-17T05:11:55.737Z,24.65
2019-02-17T05:13:00.517Z,24.30
2019-02-17T05:14:05.276Z,24.50
2019-02-17T05:15:10.389Z,24.87
2019-02-17T05:16:15.365Z,23.52
2019-02-17T05:17:20.132Z,25.17
2019-02-17T05:18:24.882Z,23.70
2019-02-17T05:19:29.850Z,24.20
2019-02-17T05:20:34.712Z,24.63
2019-02-17T05:21:39.523Z,23.27
2019-02-17T05:22:44.296Z,23.90
2019-02-17T05:23:49.241Z,24.45
2019-02-17T05:24:54.104Z,23.85
2019-02-17T05:25:59.117Z,23.18
2019-02-17T05:27:03.836Z,22.77
2019-02-17T05:28:08.713Z,23.35
2019-02-17T05:29:13.718Z,24.43
2019-02-17T05:30:18.520Z,23.65
2019-02-17T05:31:23.413Z,22.80
2019-02-17T05:32:28.500Z,22.10
2019-02-17T05:33:33.621Z,22.62
2019-02-17T05:34:38.384Z,22.13
2019-02-17T05:35:43.283Z,21.80
2019-02-17T05:36:48.173Z,21.37
2019-02-17T05:37:52.900Z,22.42
2019-02-17T05:38:58.329Z,22.13
2019-02-17T05:40:03.256Z,21.77
2019-02-17T05:41:08.161Z,21.33
2019-02-17T05:42:12.919Z,21.87
2019-02-17T05:43:17.804Z,22.87
2019-02-17T05:44:22.593Z,21.45
2019-02-17T05:45:27.540Z,21.45
2019-02-17T05:46:32.313Z,20.43
2019-02-17T05:47:37.180Z,21.68
2019-02-17T05:48:42.096Z,20.72
2019-02-17T05:49:47.168Z,21.07
2019-02-17T05:50:51.918Z,21.95
2019-02-17T05:51:56.813Z,21.12
2019-02-17T05:53:01.962Z,21.75
2019-02-17T05:54:06.822Z,20.48
2019-02-17T05:55:11.604Z,20.30
2019-02-17T05:56:16.558Z,21.30
2019-02-17T05:57:21.484Z,20.37
2019-02-17T05:58:26.255Z,20.92
2019-02-17T05:59:31.096Z,21.57
2019-02-17T06:00:37.948Z,20.57
2019-02-17T06:01:42.848Z,20.50
2019-02-17T06:02:47.593Z,20.50
2019-02-17T06:03:52.537Z,21.17
2019-02-17T06:04:57.652Z,20.90
2019-02-17T06:06:02.461Z,20.77
2019-02-17T06:07:07.683Z,21.23
2019-02-17T06:08:12.669Z,21.10
2019-02-17T06:09:17.738Z,20.25
2019-02-17T06:10:22.645Z,21.00
2019-02-17T06:11:27.568Z,20.08
2019-02-17T06:12:32.566Z,20.70
2019-02-17T06:13:37.515Z,19.62
2019-02-17T06:14:42.554Z,18.85
2019-02-17T06:15:47.506Z,19.65
2019-02-17T06:16:52.222Z,20.37
2019-02-17T06:17:57.140Z,19.95
2019-02-17T06:19:02.165Z,20.82
2019-02-17T06:20:07.772Z,19.42
2019-02-17T06:21:12.609Z,20.10
2019-02-17T06:22:17.608Z,20.43
2019-02-17T06:23:22.753Z,20.25
2019-02-17T06:24:27.587Z,20.68
2019-02-17T06:25:32.432Z,22.05
2019-02-17T06:26:37.364Z,21.73
2019-02-17T06:27:42.316Z,21.42
2019-02-17T06:28:47.168Z,25.25
2019-02-17T06:29:52.073Z,25.97
2019-02-17T06:30:57.015Z,25.77
2019-02-17T06:32:02.055Z,27.45
2019-02-17T06:33:06.944Z,25.65
2019-02-17T06:34:11.871Z,22.73
2019-02-17T06:35:16.660Z,20.30
2019-02-17T06:36:21.740Z,20.90
2019-02-17T06:37:26.628Z,25.40
2019-02-17T06:38:31.372Z,27.75
2019-02-17T06:39:36.180Z,29.80
2019-02-17T06:40:41.120Z,32.88
2019-02-17T06:41:46.019Z,28.25
2019-02-17T06:42:51.128Z,29.25
2019-02-17T06:43:56.045Z,26.37
2019-02-17T06:45:00.928Z,23.32
2019-02-17T06:46:06.133Z,25.90
2019-02-17T06:47:18.980Z,26.82
2019-02-17T06:48:23.767Z,24.05
2019-02-17T06:49:28.854Z,23.67
2019-02-17T06:50:33.979Z,29.32
2019-02-17T06:51:38.715Z,26.85
2019-02-17T06:52:43.601Z,28.70
2019-02-17T06:53:48.520Z,28.52
2019-02-17T06:55:27.446Z,22.48
2019-02-17T06:56:51.397Z,21.57
2019-02-17T06:57:56.472Z,27.07
2019-02-17T06:59:01.360Z,31.80
2019-02-17T07:00:15.008Z,26.42
2019-02-17T07:01:24.605Z,21.57
2019-02-17T07:02:26.625Z,20.72
2019-02-17T07:03:31.737Z,22.35
2019-02-17T07:04:48.207Z,22.75
2019-02-17T07:06:00.166Z,24.25
2019-02-17T07:07:06.428Z,21.90
2019-02-17T07:08:11.973Z,21.12
2019-02-17T07:09:16.802Z,21.75
2019-02-17T07:10:22.041Z,20.88
2019-02-17T07:11:26.996Z,21.27
2019-02-17T07:12:32.215Z,22.02
2019-02-17T07:13:37.301Z,22.17
2019-02-17T07:14:42.204Z,21.87
2019-02-17T07:15:46.994Z,21.73
2019-02-17T07:16:52.004Z,23.45
2019-02-17T07:17:59.120Z,24.57
2019-02-17T07:19:03.744Z,21.70
2019-02-17T07:20:09.765Z,20.70
2019-02-17T07:21:14.921Z,22.93
2019-02-17T07:22:19.882Z,22.85
2019-02-17T07:23:24.764Z,24.23
2019-02-17T07:24:29.724Z,23.20
2019-02-17T07:25:34.632Z,21.80
2019-02-17T07:26:39.602Z,22.58
2019-02-17T07:27:44.720Z,23.12
2019-02-17T07:28:50.053Z,24.07
2019-02-17T07:29:54.869Z,22.10
2019-02-17T07:30:59.664Z,21.55
2019-02-17T07:32:04.573Z,23.52
2019-02-17T07:33:09.414Z,23.00
2019-02-17T07:34:14.213Z,24.25
2019-02-17T07:35:19.014Z,24.20
2019-02-17T07:36:23.983Z,22.30
2019-02-17T07:37:33.377Z,27.07
2019-02-17T07:38:35.324Z,23.30
2019-02-17T07:39:40.051Z,22.60
2019-02-17T07:40:44.866Z,21.68
2019-02-17T07:41:50.110Z,22.25
2019-02-17T07:42:54.940Z,22.70
2019-02-17T07:43:59.777Z,23.40
2019-02-17T07:45:04.706Z,22.05
2019-02-17T07:46:09.586Z,23.07
2019-02-17T07:47:14.488Z,22.80
2019-02-17T07:48:19.276Z,22.17
2019-02-17T07:49:24.218Z,23.67
2019-02-17T07:50:29.052Z,24.30
2019-02-17T07:51:34.104Z,24.55
2019-02-17T07:52:39.095Z,25.40
2019-02-17T07:53:44.353Z,23.07
2019-02-17T07:54:49.128Z,22.25
2019-02-17T07:55:54.259Z,21.45
2019-02-17T07:56:59.212Z,22.62
2019-02-17T07:58:04.177Z,23.50
2019-02-17T07:59:09.173Z,22.65
2019-02-17T08:00:14.092Z,22.55
2019-02-17T08:01:19.086Z,24.00
2019-02-17T08:02:23.972Z,23.98
2019-02-17T08:03:28.653Z,23.50
2019-02-17T08:04:33.502Z,22.70
2019-02-17T08:05:38.312Z,23.80
2019-02-17T08:06:43.212Z,25.08
2019-02-17T08:07:48.094Z,23.57
2019-02-17T08:08:53.058Z,25.00
2019-02-17T08:09:57.987Z,26.68
2019-02-17T08:11:04.321Z,27.67
2019-02-17T08:12:09.405Z,26.10
2019-02-17T08:13:14.266Z,24.60
2019-02-17T08:14:19.325Z,27.35
2019-02-17T08:15:24.276Z,25.60
2019-02-17T08:16:29.184Z,25.75
2019-02-17T08:17:34.087Z,26.02
2019-02-17T08:18:39.010Z,41.23
2019-02-17T08:19:45.136Z,51.60
2019-02-17T08:20:50.035Z,58.75
2019-02-17T08:21:54.848Z,42.65
2019-02-17T08:22:59.596Z,44.27
2019-02-17T08:24:04.360Z,30.10
2019-02-17T08:25:10.425Z,61.95
2019-02-17T08:26:15.341Z,53.55
2019-02-17T08:27:20.144Z,45.80
2019-02-17T08:28:24.969Z,62.55
2019-02-17T08:29:29.737Z,63.17
2019-02-17T08:30:34.589Z,49.63
2019-02-17T08:31:39.410Z,54.80
2019-02-17T08:32:44.349Z,101.50
2019-02-17T08:33:49.109Z,56.48
2019-02-17T08:34:53.896Z,48.42
2019-02-17T08:35:58.631Z,63.55
2019-02-17T08:37:03.532Z,65.95
2019-02-17T08:38:08.312Z,42.98
2019-02-17T08:39:13.237Z,53.33
2019-02-17T08:40:18.152Z,59.20
2019-02-17T08:41:23.100Z,41.48
2019-02-17T08:42:27.961Z,35.38
2019-02-17T08:43:32.769Z,26.93
2019-02-17T08:44:37.601Z,32.80
2019-02-17T08:45:42.406Z,26.62
2019-02-17T08:46:47.245Z,26.85
2019-02-17T08:47:52.077Z,31.40
2019-02-17T08:48:56.929Z,23.55
2019-02-17T08:50:01.939Z,24.12
2019-02-17T08:51:07.606Z,24.27
2019-02-17T08:52:12.684Z,26.27
2019-02-17T08:53:18.241Z,26.10
2019-02-17T08:54:23.060Z,28.65
2019-02-17T08:55:27.958Z,24.35
2019-02-17T08:56:32.783Z,27.77
2019-02-17T08:57:38.170Z,29.60
2019-02-17T08:58:43.224Z,26.70
2019-02-17T08:59:48.015Z,27.73
2019-02-17T09:00:52.964Z,33.58
2019-02-17T09:02:05.666Z,36.08
2019-02-17T09:03:04.196Z,29.82
2019-02-17T09:04:08.982Z,23.00
2019-02-17T09:05:13.827Z,27.37
2019-02-17T09:06:18.654Z,30.92
2019-02-17T09:07:23.585Z,50.55
2019-02-17T09:08:28.449Z,38.92
2019-02-17T09:09:33.428Z,41.73
2019-02-17T09:10:38.332Z,35.48
2019-02-17T09:11:43.102Z,57.38
2019-02-17T09:12:47.972Z,57.95
2019-02-17T09:25:35.937Z,26.00
2019-02-17T09:26:40.741Z,27.58
2019-02-17T09:27:45.632Z,35.10
2019-02-17T09:28:50.452Z,34.65
2019-02-17T09:29:55.245Z,30.40
2019-02-17T09:31:00.193Z,23.50
2019-02-17T09:32:05.102Z,24.80
2019-02-17T09:33:10.186Z,28.95
2019-02-17T09:34:15.023Z,24.55
2019-02-17T09:35:19.946Z,26.70
2019-02-17T09:36:24.839Z,29.48
2019-02-17T09:37:29.788Z,26.27
2019-02-17T09:38:34.585Z,23.90
2019-02-17T09:39:39.431Z,28.65
2019-02-17T09:40:44.387Z,32.55
2019-02-17T09:41:49.206Z,26.12
2019-02-17T09:42:54.065Z,23.70
2019-02-17T09:43:59.684Z,23.52
2019-02-17T09:45:04.832Z,24.27
2019-02-17T09:46:09.869Z,23.22
2019-02-17T09:47:15.133Z,21.62
2019-02-17T09:48:19.929Z,20.60
2019-02-17T09:49:24.765Z,22.85
2019-02-17T09:50:29.584Z,21.40
2019-02-17T09:51:34.333Z,20.77
2019-02-17T09:52:39.161Z,21.42
2019-02-17T09:53:44.005Z,25.12
2019-02-17T09:54:48.835Z,25.43
2019-02-17T09:55:55.130Z,24.27
2019-02-17T09:57:00.118Z,22.62
2019-02-17T09:58:05.021Z,22.00
2019-02-17T09:59:09.867Z,27.70
2019-02-17T10:00:15.072Z,26.60
2019-02-17T10:01:21.506Z,21.33
2019-02-17T10:02:26.976Z,20.60
2019-02-17T10:03:31.894Z,21.80
2019-02-17T10:04:36.948Z,20.95
2019-02-17T10:05:41.910Z,20.30
2019-02-17T10:06:46.809Z,20.12
2019-02-17T10:07:51.597Z,20.35
2019-02-17T10:08:56.420Z,20.88
2019-02-17T10:10:01.497Z,19.40
2019-02-17T10:11:06.643Z,20.30
2019-02-17T10:12:11.891Z,20.45
2019-02-17T10:13:16.962Z,20.68
2019-02-17T10:14:21.847Z,18.02
2019-02-17T10:15:26.780Z,20.15
2019-02-17T10:16:31.662Z,22.17
2019-02-17T10:17:36.437Z,20.30
2019-02-17T10:18:41.300Z,19.75
2019-02-17T10:19:46.164Z,26.75
2019-02-17T10:20:50.900Z,29.27
2019-02-17T10:21:55.689Z,39.67
2019-02-17T10:23:00.564Z,41.77
2019-02-17T10:24:05.424Z,24.90
2019-02-17T10:25:10.348Z,22.85
2019-02-17T10:26:15.288Z,20.37
2019-02-17T10:27:20.092Z,22.13
2019-02-17T10:28:24.858Z,26.75
2019-02-17T10:29:29.703Z,28.92
2019-02-17T10:30:34.455Z,30.75
2019-02-17T10:31:39.341Z,53.83
2019-02-17T10:32:44.202Z,22.40
2019-02-17T10:33:48.971Z,22.80
2019-02-17T10:34:53.793Z,25.00
2019-02-17T10:35:58.718Z,22.40
2019-02-17T10:37:03.723Z,19.30
2019-02-17T10:38:08.477Z,18.92
2019-02-17T10:39:13.447Z,18.35
2019-02-17T10:40:18.281Z,18.17
2019-02-17T10:41:23.057Z,18.80
2019-02-17T10:42:27.833Z,18.17
2019-02-17T10:43:32.649Z,17.75
2019-02-17T10:44:37.555Z,18.23
2019-02-17T10:45:42.332Z,17.62
2019-02-17T10:46:47.148Z,16.85
2019-02-17T10:47:51.984Z,17.05
2019-02-17T10:48:56.743Z,17.90
2019-02-17T10:50:01.689Z,21.17
2019-02-17T10:51:06.559Z,18.87
2019-02-17T10:52:11.487Z,18.48
2019-02-17T10:53:16.316Z,17.95
2019-02-17T10:54:23.069Z,17.23
2019-02-17T10:55:27.691Z,17.65
2019-02-17T10:56:32.412Z,16.52
2019-02-17T10:57:37.201Z,17.12
2019-02-17T10:58:41.990Z,16.25
2019-02-17T10:59:46.996Z,16.55
2019-02-17T11:00:51.850Z,17.05
2019-02-17T11:01:56.642Z,17.25
2019-02-17T11:03:07.750Z,17.90
2019-02-17T11:04:12.921Z,17.42
2019-02-17T11:05:17.821Z,17.52
2019-02-17T11:06:22.599Z,15.18
2019-02-17T11:07:27.435Z,16.97
2019-02-17T11:08:32.324Z,16.50
2019-02-17T11:09:37.349Z,16.25
2019-02-17T11:10:42.083Z,16.87
2019-02-17T11:11:46.897Z,15.70
2019-02-17T11:12:51.752Z,15.60
2019-02-17T11:13:56.644Z,16.42
2019-02-17T11:15:01.538Z,17.23
2019-02-17T11:16:06.513Z,17.10
2019-02-17T11:17:11.521Z,16.77
2019-02-17T11:18:16.346Z,16.75
2019-02-17T11:19:21.106Z,15.50
2019-02-17T11:20:26.190Z,16.07
2019-02-17T11:21:31.062Z,22.25
2019-02-17T11:22:35.922Z,17.25
2019-02-17T11:23:41.020Z,17.55
2019-02-17T11:24:45.818Z,17.00
2019-02-17T11:25:50.915Z,18.45
2019-02-17T11:26:55.754Z,17.50
2019-02-17T11:28:01.389Z,17.02
2019-02-17T11:29:06.618Z,15.75
2019-02-17T11:30:13.157Z,15.85
2019-02-17T11:31:18.020Z,15.25
2019-02-17T11:32:22.790Z,16.80
2019-02-17T11:33:27.536Z,16.37
2019-02-17T11:34:32.480Z,17.90
2019-02-17T11:35:37.343Z,20.40
2019-02-17T11:36:42.094Z,27.60
2019-02-17T11:37:47.059Z,25.20
2019-02-17T11:38:51.959Z,18.07
2019-02-17T11:39:56.763Z,15.58
2019-02-17T11:41:01.493Z,14.65
2019-02-17T11:42:06.239Z,12.65
2019-02-17T11:43:11.218Z,13.95
2019-02-17T11:44:17.280Z,13.80
2019-02-17T11:45:22.496Z,12.68
2019-02-17T11:46:27.293Z,15.10
2019-02-17T11:47:32.207Z,15.35
2019-02-17T11:48:37.121Z,13.85
2019-02-17T11:49:41.952Z,12.98
2019-02-17T11:50:46.970Z,12.93
2019-02-17T11:51:51.912Z,13.83
2019-02-17T11:52:56.796Z,13.08
2019-02-17T11:54:01.727Z,11.90
2019-02-17T11:55:07.474Z,13.43
2019-02-17T11:56:12.356Z,13.18
2019-02-17T11:57:20.043Z,12.35
2019-02-17T11:58:24.922Z,13.40
2019-02-17T11:59:29.925Z,14.67
2019-02-17T12:00:35.088Z,14.50
2019-02-17T12:01:40.261Z,11.97
2019-02-17T12:02:45.567Z,12.13
2019-02-17T12:03:50.472Z,12.43
2019-02-17T12:04:55.443Z,13.83
2019-02-17T12:06:00.401Z,13.50
2019-02-17T12:07:05.241Z,13.22
2019-02-17T12:08:10.007Z,14.47
2019-02-17T12:09:15.087Z,14.38
2019-02-17T12:10:19.998Z,16.07
2019-02-17T12:11:24.931Z,15.13
2019-02-17T12:12:29.914Z,18.67
2019-02-17T12:13:34.763Z,16.50
2019-02-17T12:14:39.715Z,14.40
2019-02-17T12:15:44.641Z,15.60
2019-02-17T12:16:49.520Z,17.10
2019-02-17T12:17:56.126Z,13.35
2019-02-17T12:19:00.937Z,12.73
2019-02-17T12:20:28.158Z,10.45
2019-02-17T12:21:43.917Z,9.48
2019-02-17T12:22:54.993Z,12.85
2019-02-17T12:24:14.114Z,9.68
2019-02-17T12:25:24.132Z,10.38
2019-02-17T12:26:42.195Z,11.60
2019-02-17T12:28:01.596Z,9.93
2019-02-17T12:29:11.994Z,12.65
2019-02-17T12:30:21.003Z,12.43
2019-02-17T12:31:28.712Z,12.65
2019-02-17T12:32:33.592Z,17.87
2019-02-17T12:33:38.477Z,8.53
2019-02-17T12:34:43.317Z,12.95
2019-02-17T12:35:48.394Z,25.17
2019-02-17T12:36:53.486Z,10.03
2019-02-17T12:37:58.524Z,7.08
2019-02-17T12:39:03.515Z,15.10
2019-02-17T12:40:11.652Z,17.12
2019-02-17T12:41:17.136Z,12.60
2019-02-17T12:42:22.161Z,7.47
2019-02-17T12:43:27.084Z,7.97
2019-02-17T12:44:32.229Z,7.50
2019-02-17T12:45:37.080Z,7.47
2019-02-17T12:46:42.325Z,7.25
2019-02-17T12:47:55.426Z,7.95
2019-02-17T12:48:53.925Z,8.45
2019-02-17T12:49:59.091Z,9.38
2019-02-17T12:51:04.000Z,11.38
2019-02-17T12:52:11.338Z,37.50
2019-02-17T12:53:16.320Z,14.53
2019-02-17T12:54:28.941Z,17.30
2019-02-17T12:55:27.996Z,13.50
2019-02-17T12:56:33.131Z,10.90
2019-02-17T12:57:38.275Z,8.10
2019-02-17T12:58:45.890Z,9.68
2019-02-17T12:59:50.760Z,8.40
2019-02-17T13:00:55.992Z,8.18
2019-02-17T13:02:00.853Z,7.55
2019-02-17T13:03:05.806Z,9.00
2019-02-17T13:04:10.770Z,8.00
2019-02-17T13:05:15.888Z,7.37
2019-02-17T13:06:21.115Z,8.25
2019-02-17T13:07:26.313Z,8.25
2019-02-17T13:08:31.137Z,8.48
2019-02-17T13:09:35.959Z,7.95
2019-02-17T13:10:43.511Z,7.72
2019-02-17T13:11:48.718Z,8.03
2019-02-17T13:12:53.733Z,8.70
2019-02-17T13:13:58.635Z,8.03
2019-02-17T13:15:03.487Z,8.95
2019-02-17T13:16:08.942Z,8.10
2019-02-17T13:17:13.821Z,7.95
2019-02-17T13:18:18.656Z,7.70
2019-02-17T13:19:23.648Z,9.33
2019-02-17T13:20:28.396Z,9.00
2019-02-17T13:21:33.312Z,7.58
2019-02-17T13:22:38.195Z,9.18
2019-02-17T13:23:43.041Z,11.20
2019-02-17T13:24:48.010Z,12.35
2019-02-17T13:25:53.128Z,10.38
2019-02-17T13:26:58.120Z,10.03
2019-02-17T13:28:03.023Z,9.78
2019-02-17T13:29:07.992Z,9.30
2019-02-17T13:30:18.478Z,9.40
2019-02-17T13:31:23.393Z,10.93
2019-02-17T13:32:28.298Z,10.63
2019-02-17T13:33:39.126Z,9.23
2019-02-17T13:34:39.844Z,9.78
2019-02-17T13:35:44.738Z,10.10
2019-02-17T13:36:49.669Z,10.28
2019-02-17T13:37:54.560Z,10.13
2019-02-17T13:38:59.564Z,9.90
2019-02-17T13:40:04.402Z,9.25
2019-02-17T13:41:09.247Z,9.60
2019-02-17T13:43:30.805Z,9.50
2019-02-17T13:44:35.679Z,9.50
2019-02-17T13:45:40.554Z,10.03
2019-02-17T13:46:45.395Z,10.45
2019-02-17T13:47:50.311Z,11.35
2019-02-17T13:48:55.324Z,10.25
2019-02-17T13:50:00.279Z,9.85
2019-02-17T13:51:05.368Z,9.43
2019-02-17T13:52:10.426Z,9.93
2019-02-17T13:53:15.442Z,10.25
2019-02-17T13:54:20.264Z,10.70
2019-02-17T13:55:25.080Z,10.38
2019-02-17T13:56:29.881Z,10.70
2019-02-17T13:57:34.913Z,13.72
2019-02-17T13:58:39.766Z,20.92
2019-02-17T13:59:44.620Z,36.45
2019-02-17T14:00:49.498Z,38.13
2019-02-17T14:01:54.347Z,33.05
2019-02-17T14:02:59.310Z,24.05
2019-02-17T14:04:04.192Z,25.48
2019-02-17T14:05:10.903Z,12.35
2019-02-17T14:06:15.869Z,21.02
2019-02-17T14:07:21.466Z,41.33
2019-02-17T14:08:27.117Z,32.85
2019-02-17T14:09:32.693Z,16.12
2019-02-17T14:10:37.735Z,12.07
2019-02-17T14:11:42.505Z,12.43
2019-02-17T14:12:47.305Z,17.55
2019-02-17T14:13:52.071Z,15.85
2019-02-17T14:14:56.828Z,17.12
2019-02-17T14:16:01.594Z,13.68